Time;durP1;ratioP1;P1;durP2;ratioP2;P2;SDS_P1;SDS_P2;PMS_P1;PMS_P2;Temp;Humidity;BMP_temperature;BMP_pressure;BME280_temperature;BME280_humidity;BME280_pressure;Samples;Min_cycle;Max_cycle;Signal;HPM_P1;HPM_P2
2022/02/16 00:01:48;;;;;;;7.97;5.67;;;;;;;;;;4977222;28;20047;-71
2022/02/16 00:04:14;;;;;;;7.40;4.70;;;;;;;;;;4977206;28;20043;-71
2022/02/16 00:06:40;;;;;;;8.23;5.03;;;;;;;;;;4977061;28;20086;-70
2022/02/16 00:09:06;;;;;;;5.90;4.50;;;;;;;;;;4975992;28;20046;-70
2022/02/16 00:11:33;;;;;;;4.50;3.30;;;;;;;;;;4977304;28;20038;-71
2022/02/16 00:13:59;;;;;;;5.93;3.77;;;;;;;;;;4977448;28;20480;-71
2022/02/16 00:16:25;;;;;;;7.63;4.77;;;;;;;;;;4977355;28;20490;-71
2022/02/16 00:18:51;;;;;;;6.30;4.70;;;;;;;;;;4977171;28;20039;-71
2022/02/16 00:21:17;;;;;;;6.03;4.87;;;;;;;;;;4977240;28;20134;-70
2022/02/16 00:23:43;;;;;;;7.63;5.27;;;;;;;;;;4977132;28;20039;-71
2022/02/16 00:26:09;;;;;;;5.57;4.03;;;;;;;;;;4977052;28;20046;-70
2022/02/16 00:28:35;;;;;;;5.07;3.10;;;;;;;;;;4977058;28;20122;-71
2022/02/16 00:31:02;;;;;;;8.60;4.17;;;;;;;;;;4977049;28;20054;-70
2022/02/16 00:33:28;;;;;;;7.23;5.47;;;;;;;;;;4976573;28;20050;-71
2022/02/16 00:35:54;;;;;;;7.43;4.97;;;;;;;;;;4977085;28;20045;-70
2022/02/16 00:38:20;;;;;;;7.43;5.23;;;;;;;;;;4977193;28;20031;-70
2022/02/16 00:40:46;;;;;;;8.43;6.80;;;;;;;;;;4976718;28;20050;-70
2022/02/16 00:43:12;;;;;;;10.60;8.70;;;;;;;;;;4976336;28;20039;-70
2022/02/16 00:45:38;;;;;;;14.63;10.03;;;;;;;;;;4976396;28;20039;-71
2022/02/16 00:48:04;;;;;;;12.97;9.63;;;;;;;;;;4928730;28;20480;-71
2022/02/16 00:50:30;;;;;;;13.07;9.27;;;;;;;;;;4976423;28;20042;-71
2022/02/16 00:52:56;;;;;;;11.40;9.33;;;;;;;;;;4976070;28;20030;-71
2022/02/16 00:55:22;;;;;;;12.20;8.43;;;;;;;;;;4976087;28;20062;-71
2022/02/16 00:57:50;;;;;;;11.70;9.10;;;;;;;;;;4973297;28;20087;-72
2022/02/16 01:00:17;;;;;;;15.20;10.90;;;;;;;;;;4973934;28;20454;-70
2022/02/16 01:02:43;;;;;;;13.63;10.47;;;;;;;;;;4974290;28;20037;-71
2022/02/16 01:05:09;;;;;;;12.43;10.30;;;;;;;;;;4974864;28;20031;-70
2022/02/16 01:07:35;;;;;;;12.33;9.53;;;;;;;;;;4973563;28;20031;-71
2022/02/16 01:10:02;;;;;;;12.63;9.00;;;;;;;;;;4975886;28;20030;-71
2022/02/16 01:12:28;;;;;;;12.07;9.00;;;;;;;;;;4975964;28;20038;-70
2022/02/16 01:14:54;;;;;;;12.80;9.47;;;;;;;;;;4976021;28;20038;-70
2022/02/16 01:17:20;;;;;;;15.73;9.93;;;;;;;;;;4975704;28;20105;-71
2022/02/16 01:19:46;;;;;;;14.83;12.83;;;;;;;;;;4975613;28;20098;-70
2022/02/16 01:22:12;;;;;;;17.80;14.20;;;;;;;;;;4975699;28;20039;-71
2022/02/16 01:24:38;;;;;;;17.33;13.00;;;;;;;;;;4975838;28;20045;-72
2022/02/16 01:27:04;;;;;;;19.53;13.73;;;;;;;;;;4975800;28;20114;-71
2022/02/16 01:29:30;;;;;;;20.37;13.50;;;;;;;;;;4975395;28;20039;-70
2022/02/16 01:31:57;;;;;;;16.60;13.10;;;;;;;;;;4975511;28;20484;-71
2022/02/16 01:34:23;;;;;;;15.90;12.87;;;;;;;;;;4975277;28;20615;-70
2022/02/16 01:36:49;;;;;;;15.50;12.73;;;;;;;;;;4975600;28;20526;-71
2022/02/16 01:39:15;;;;;;;18.57;13.90;;;;;;;;;;4975403;28;20041;-70
2022/02/16 01:41:41;;;;;;;18.57;13.80;;;;;;;;;;4975437;28;20050;-70
2022/02/16 01:44:08;;;;;;;15.87;12.20;;;;;;;;;;4975424;28;20035;-70
2022/02/16 01:46:49;;;;;;;13.57;10.87;;;;;;;;;;4975349;28;20046;-70
2022/02/16 01:49:15;;;;;;;12.23;10.30;;;;;;;;;;4974048;28;20165;-71
2022/02/16 01:51:41;;;;;;;14.43;11.37;;;;;;;;;;4975248;28;20154;-72
2022/02/16 01:54:09;;;;;;;13.90;9.37;;;;;;;;;;4975107;28;20035;-70
2022/02/16 01:56:35;;;;;;;12.20;9.93;;;;;;;;;;4974996;28;20043;-70
2022/02/16 01:59:01;;;;;;;13.67;10.33;;;;;;;;;;4972684;28;20046;-70
2022/02/16 02:01:27;;;;;;;12.80;9.93;;;;;;;;;;4972180;28;20061;-71
2022/02/16 02:03:53;;;;;;;16.83;12.83;;;;;;;;;;4972571;28;20030;-70
2022/02/16 02:06:19;;;;;;;18.07;12.73;;;;;;;;;;4974737;28;20031;-70
2022/02/16 02:08:45;;;;;;;18.60;12.10;;;;;;;;;;4974919;28;20045;-70
2022/02/16 02:11:12;;;;;;;7.57;6.13;;;;;;;;;;4974685;28;20097;-70
2022/02/16 02:13:38;;;;;;;6.23;4.60;;;;;;;;;;4974435;28;20479;-71
2022/02/16 02:16:04;;;;;;;4.47;3.07;;;;;;;;;;4974377;28;20035;-71
2022/02/16 02:18:30;;;;;;;3.80;2.50;;;;;;;;;;4973847;28;20130;-71
2022/02/16 02:20:56;;;;;;;2.83;2.30;;;;;;;;;;4974453;28;20106;-71
2022/02/16 02:23:22;;;;;;;2.50;1.97;;;;;;;;;;4974736;28;20045;-71
2022/02/16 02:25:49;;;;;;;3.07;2.37;;;;;;;;;;4974569;28;20098;-71
2022/02/16 02:28:20;;;;;;;2.63;1.77;;;;;;;;;;4974239;28;20039;-70
2022/02/16 02:30:47;;;;;;;2.33;1.70;;;;;;;;;;4974455;28;20046;-70
2022/02/16 02:33:13;;;;;;;2.57;1.53;;;;;;;;;;4974445;28;20448;-70
2022/02/16 02:35:39;;;;;;;4.43;1.60;;;;;;;;;;4973802;28;20488;-70
2022/02/16 02:38:06;;;;;;;2.60;1.80;;;;;;;;;;4974326;28;20446;-70
2022/02/16 02:40:32;;;;;;;2.57;1.53;;;;;;;;;;4973928;28;20399;-70
2022/02/16 02:42:58;;;;;;;1.43;1.20;;;;;;;;;;4974144;28;20046;-70
2022/02/16 02:45:24;;;;;;;1.83;1.50;;;;;;;;;;4974207;28;20520;-70
2022/02/16 02:47:50;;;;;;;2.13;1.60;;;;;;;;;;4974264;28;20558;-70
2022/02/16 02:50:16;;;;;;;2.87;2.27;;;;;;;;;;4973934;28;20034;-70
2022/02/16 02:52:42;;;;;;;5.10;3.20;;;;;;;;;;4974232;28;20118;-70
2022/02/16 02:55:09;;;;;;;3.77;3.20;;;;;;;;;;4973735;28;20034;-70
2022/02/16 02:57:35;;;;;;;5.00;2.67;;;;;;;;;;4973877;28;20034;-70
2022/02/16 03:00:03;;;;;;;4.77;3.57;;;;;;;;;;4974097;28;20043;-70
2022/02/16 03:02:29;;;;;;;5.13;3.90;;;;;;;;;;4974186;28;20495;-70
2022/02/16 03:04:55;;;;;;;5.77;4.17;;;;;;;;;;4974104;28;20495;-70
2022/02/16 03:07:21;;;;;;;6.67;4.40;;;;;;;;;;4974215;28;20043;-69
2022/02/16 03:09:47;;;;;;;6.53;4.50;;;;;;;;;;4973973;28;20490;-69
2022/02/16 03:12:14;;;;;;;8.00;5.50;;;;;;;;;;4974014;28;20039;-69
2022/02/16 03:14:41;;;;;;;9.13;5.10;;;;;;;;;;4974245;28;20126;-70
2022/02/16 03:17:07;;;;;;;5.97;4.43;;;;;;;;;;4973999;28;20031;-69
2022/02/16 03:19:33;;;;;;;8.00;6.37;;;;;;;;;;4973815;28;20038;-69
2022/02/16 03:21:59;;;;;;;6.80;6.03;;;;;;;;;;4973871;28;20043;-70
2022/02/16 03:24:25;;;;;;;10.87;6.23;;;;;;;;;;4974064;28;20090;-70
2022/02/16 03:26:51;;;;;;;7.73;6.37;;;;;;;;;;4973846;28;20046;-70
2022/02/16 03:29:17;;;;;;;6.60;5.23;;;;;;;;;;4975767;28;20031;-70
2022/02/16 03:31:43;;;;;;;6.70;5.40;;;;;;;;;;4977722;28;20161;-70
2022/02/16 03:34:09;;;;;;;6.20;5.40;;;;;;;;;;4977797;28;20047;-70
2022/02/16 03:36:35;;;;;;;8.33;5.70;;;;;;;;;;4977817;28;20031;-70
2022/02/16 03:39:01;;;;;;;9.67;5.77;;;;;;;;;;4977843;28;20050;-70
2022/02/16 03:41:27;;;;;;;7.40;5.77;;;;;;;;;;4977390;28;20050;-71
2022/02/16 03:43:53;;;;;;;7.73;5.93;;;;;;;;;;4977769;28;20030;-70
2022/02/16 03:46:19;;;;;;;7.73;6.30;;;;;;;;;;4977480;28;20035;-70
2022/02/16 03:48:46;;;;;;;10.73;7.20;;;;;;;;;;4977615;28;20035;-71
2022/02/16 03:51:12;;;;;;;10.30;7.40;;;;;;;;;;4977262;28;20046;-71
2022/02/16 03:53:38;;;;;;;12.93;8.70;;;;;;;;;;4977195;28;20031;-70
2022/02/16 03:56:04;;;;;;;10.13;7.33;;;;;;;;;;4977447;28;20035;-71
2022/02/16 03:58:30;;;;;;;9.70;7.70;;;;;;;;;;4977463;28;20038;-71
2022/02/16 04:00:56;;;;;;;8.97;7.33;;;;;;;;;;4977353;28;20130;-70
2022/02/16 04:03:22;;;;;;;14.30;8.53;;;;;;;;;;4977006;28;20036;-70
2022/02/16 04:05:48;;;;;;;11.43;9.27;;;;;;;;;;4977250;28;20035;-70
2022/02/16 04:08:15;;;;;;;13.33;10.57;;;;;;;;;;4977285;28;20031;-70
2022/02/16 04:10:41;;;;;;;13.43;10.77;;;;;;;;;;4977347;28;20035;-70
2022/02/16 04:13:07;;;;;;;13.67;10.27;;;;;;;;;;4977159;28;20031;-70
2022/02/16 04:15:36;;;;;;;11.83;9.83;;;;;;;;;;4976751;28;20092;-72
2022/02/16 04:18:02;;;;;;;13.20;10.27;;;;;;;;;;4977303;28;20387;-71
2022/02/16 04:20:28;;;;;;;11.50;8.97;;;;;;;;;;4976580;28;20105;-71
2022/02/16 04:22:54;;;;;;;7.77;6.53;;;;;;;;;;4976804;28;20066;-70
2022/02/16 04:25:20;;;;;;;4.50;3.97;;;;;;;;;;4976967;28;20035;-70
2022/02/16 04:27:47;;;;;;;7.67;3.90;;;;;;;;;;4976814;28;20474;-70
2022/02/16 04:30:13;;;;;;;4.43;2.87;;;;;;;;;;4976518;28;20454;-70
2022/02/16 04:32:39;;;;;;;3.93;2.70;;;;;;;;;;4976410;28;20091;-71
2022/02/16 04:35:07;;;;;;;3.00;2.07;;;;;;;;;;4976558;28;20141;-70
2022/02/16 04:37:33;;;;;;;4.27;3.00;;;;;;;;;;4976323;28;20035;-71
2022/02/16 04:39:59;;;;;;;5.63;4.27;;;;;;;;;;4976162;28;20039;-70
2022/02/16 04:42:25;;;;;;;7.17;5.70;;;;;;;;;;4976426;28;20138;-71
2022/02/16 04:44:52;;;;;;;8.33;6.10;;;;;;;;;;4976605;28;20046;-70
2022/02/16 04:47:18;;;;;;;8.63;5.47;;;;;;;;;;4976590;28;20376;-71
2022/02/16 04:49:44;;;;;;;7.80;5.73;;;;;;;;;;4976257;28;20476;-70
2022/02/16 04:52:11;;;;;;;6.97;5.47;;;;;;;;;;4976197;28;20049;-70
2022/02/16 04:54:37;;;;;;;9.07;5.50;;;;;;;;;;4976234;28;20039;-70
2022/02/16 04:57:03;;;;;;;6.00;4.80;;;;;;;;;;4976262;28;20043;-71
2022/02/16 04:59:30;;;;;;;5.10;4.10;;;;;;;;;;4976334;28;20045;-71
2022/02/16 05:01:56;;;;;;;5.53;3.60;;;;;;;;;;4976063;28;20453;-70
2022/02/16 05:04:22;;;;;;;3.40;2.60;;;;;;;;;;4976153;28;20499;-70
2022/02/16 05:06:48;;;;;;;2.67;1.80;;;;;;;;;;4975968;28;20089;-70
2022/02/16 05:09:14;;;;;;;2.00;1.70;;;;;;;;;;4975821;28;20042;-70
2022/02/16 05:11:40;;;;;;;2.23;1.60;;;;;;;;;;4975924;28;20046;-70
2022/02/16 05:14:06;;;;;;;1.60;1.00;;;;;;;;;;4975838;28;20037;-70
2022/02/16 05:16:32;;;;;;;2.07;1.20;;;;;;;;;;4975878;28;20396;-70
2022/02/16 05:18:59;;;;;;;2.20;1.27;;;;;;;;;;4975868;28;20039;-70
2022/02/16 05:21:25;;;;;;;1.57;1.17;;;;;;;;;;4975821;28;20050;-70
2022/02/16 05:23:51;;;;;;;1.40;1.17;;;;;;;;;;4975857;28;20486;-71
2022/02/16 05:26:17;;;;;;;2.53;1.80;;;;;;;;;;4975475;28;20089;-70
2022/02/16 05:28:43;;;;;;;2.77;1.40;;;;;;;;;;4975776;28;20066;-70
2022/02/16 05:31:09;;;;;;;3.30;1.90;;;;;;;;;;4975623;28;20468;-70
2022/02/16 05:33:36;;;;;;;2.80;2.30;;;;;;;;;;4975386;28;20126;-70
2022/02/16 05:36:03;;;;;;;3.20;2.50;;;;;;;;;;4975530;28;20042;-70
2022/02/16 05:38:29;;;;;;;4.27;3.50;;;;;;;;;;4975224;28;20055;-72
2022/02/16 05:40:55;;;;;;;6.37;4.90;;;;;;;;;;4975304;28;20066;-70
2022/02/16 05:43:21;;;;;;;10.93;8.40;;;;;;;;;;4976517;28;20487;-70
2022/02/16 05:45:47;;;;;;;11.27;8.60;;;;;;;;;;4979227;28;20038;-71
2022/02/16 05:48:20;;;;;;;23.80;10.87;;;;;;;;;;4979285;28;20039;-70
2022/02/16 05:50:49;;;;;;;29.42;12.07;;;;;;;;;;4978621;28;20059;-70
2022/02/16 05:53:16;;;;;;;15.57;10.50;;;;;;;;;;4977529;28;20035;-70
2022/02/16 05:55:42;;;;;;;13.37;9.77;;;;;;;;;;4979424;28;20034;-70
2022/02/16 05:58:08;;;;;;;13.30;10.00;;;;;;;;;;4979357;28;20038;-71
2022/02/16 06:00:34;;;;;;;10.60;9.50;;;;;;;;;;4980240;28;20105;-72
2022/02/16 06:03:00;;;;;;;12.10;9.13;;;;;;;;;;4979184;28;20066;-70
2022/02/16 06:05:26;;;;;;;13.63;11.33;;;;;;;;;;4977841;28;20039;-70
2022/02/16 06:07:52;;;;;;;16.13;11.37;;;;;;;;;;4974911;28;20035;-71
2022/02/16 06:10:18;;;;;;;12.40;9.87;;;;;;;;;;4975003;28;20046;-71
2022/02/16 06:12:45;;;;;;;13.97;10.57;;;;;;;;;;4974814;28;20403;-70
2022/02/16 06:15:11;;;;;;;15.33;11.17;;;;;;;;;;4974746;28;20050;-71
2022/02/16 06:17:38;;;;;;;16.67;11.63;;;;;;;;;;4974721;28;20038;-70
2022/02/16 06:20:04;;;;;;;15.97;10.60;;;;;;;;;;4974698;28;20043;-71
2022/02/16 06:22:30;;;;;;;15.93;11.63;;;;;;;;;;4974994;28;20130;-70
2022/02/16 06:24:56;;;;;;;17.97;12.40;;;;;;;;;;4975052;28;20108;-71
2022/02/16 06:27:22;;;;;;;14.10;10.83;;;;;;;;;;4977115;28;20094;-71
2022/02/16 06:29:48;;;;;;;13.73;10.90;;;;;;;;;;4974458;28;20062;-71
2022/02/16 06:32:14;;;;;;;17.23;12.17;;;;;;;;;;4974474;28;20042;-71
2022/02/16 06:34:40;;;;;;;15.93;11.80;;;;;;;;;;4974325;28;20105;-70
2022/02/16 06:37:06;;;;;;;17.27;11.87;;;;;;;;;;4974971;28;20395;-69
2022/02/16 06:39:32;;;;;;;14.30;11.03;;;;;;;;;;4974563;28;20122;-70
2022/02/16 06:41:58;;;;;;;15.53;11.97;;;;;;;;;;4974685;28;20137;-69
2022/02/16 06:44:24;;;;;;;17.20;11.67;;;;;;;;;;4974661;28;20077;-70
2022/02/16 06:46:50;;;;;;;13.50;10.37;;;;;;;;;;4974250;28;20073;-69
2022/02/16 06:49:16;;;;;;;13.67;10.03;;;;;;;;;;4974275;28;20046;-70
2022/02/16 06:51:43;;;;;;;12.97;9.63;;;;;;;;;;4974055;28;20042;-68
2022/02/16 06:54:09;;;;;;;13.77;10.80;;;;;;;;;;4974228;28;20039;-69
2022/02/16 06:56:35;;;;;;;15.13;11.60;;;;;;;;;;4974228;28;20039;-69
2022/02/16 06:59:01;;;;;;;16.40;12.30;;;;;;;;;;4974449;28;20039;-69
2022/02/16 07:01:28;;;;;;;14.67;11.87;;;;;;;;;;4974523;28;20043;-70
2022/02/16 07:03:54;;;;;;;19.60;11.10;;;;;;;;;;4973918;28;20118;-73
2022/02/16 07:06:20;;;;;;;11.33;8.03;;;;;;;;;;4974028;28;20043;-73
2022/02/16 07:08:47;;;;;;;14.17;10.30;;;;;;;;;;4973565;28;20035;-69
2022/02/16 07:11:13;;;;;;;18.40;11.37;;;;;;;;;;4972403;28;20042;-69
2022/02/16 07:13:39;;;;;;;15.17;10.47;;;;;;;;;;4974031;28;20042;-69
2022/02/16 07:16:05;;;;;;;14.70;10.10;;;;;;;;;;4973896;28;20484;-68
2022/02/16 07:18:33;;;;;;;12.27;9.63;;;;;;;;;;4978080;28;20051;-67
2022/02/16 07:21:00;;;;;;;12.77;6.00;;;;;;;;;;4992634;28;20077;-68
2022/02/16 07:23:26;;;;;;;10.43;4.70;;;;;;;;;;4992976;28;20117;-72
2022/02/16 07:25:52;;;;;;;7.97;3.00;;;;;;;;;;4991516;28;20030;-70
2022/02/16 07:28:18;;;;;;;4.43;2.30;;;;;;;;;;4992823;28;20034;-73
2022/02/16 07:30:46;;;;;;;5.80;2.30;;;;;;;;;;4993147;28;20034;-69
2022/02/16 07:33:12;;;;;;;6.20;3.47;;;;;;;;;;4983410;28;20051;-72
2022/02/16 07:35:39;;;;;;;4.33;2.33;;;;;;;;;;4973560;28;20031;-68
2022/02/16 07:38:05;;;;;;;6.50;2.00;;;;;;;;;;4973346;28;20030;-68
2022/02/16 07:40:31;;;;;;;6.47;3.60;;;;;;;;;;4973533;28;20043;-70
2022/02/16 07:42:57;;;;;;;4.73;2.83;;;;;;;;;;4973458;28;20042;-71
2022/02/16 07:45:23;;;;;;;3.70;2.50;;;;;;;;;;4973513;28;20049;-67
2022/02/16 07:47:49;;;;;;;4.20;2.50;;;;;;;;;;4973765;28;20034;-67
2022/02/16 07:50:15;;;;;;;4.27;2.60;;;;;;;;;;4973535;28;20122;-68
2022/02/16 07:52:42;;;;;;;4.83;2.87;;;;;;;;;;4973334;28;20031;-71
2022/02/16 07:55:08;;;;;;;10.67;4.20;;;;;;;;;;4973270;28;20046;-70
2022/02/16 07:57:34;;;;;;;8.63;5.57;;;;;;;;;;4973100;28;20041;-70
2022/02/16 08:00:00;;;;;;;10.33;8.30;;;;;;;;;;4973048;28;20094;-68
2022/02/16 08:02:27;;;;;;;9.30;7.30;;;;;;;;;;4971793;28;20098;-69
2022/02/16 08:04:53;;;;;;;7.33;6.10;;;;;;;;;;4976532;28;20041;-69
2022/02/16 08:07:19;;;;;;;8.20;6.93;;;;;;;;;;4972473;28;20039;-71
2022/02/16 08:09:45;;;;;;;9.13;6.30;;;;;;;;;;4971733;28;20540;-68
2022/02/16 08:12:12;;;;;;;7.47;5.47;;;;;;;;;;4970751;28;20395;-68
2022/02/16 08:14:38;;;;;;;6.43;4.30;;;;;;;;;;4969511;28;20074;-68
2022/02/16 08:17:04;;;;;;;6.97;2.13;;;;;;;;;;4956912;28;20074;-69
2022/02/16 08:19:30;;;;;;;3.23;1.70;;;;;;;;;;4988678;28;20027;-69
2022/02/16 08:21:58;;;;;;;3.37;1.50;;;;;;;;;;4995787;28;20074;-69
2022/02/16 08:24:25;;;;;;;8.27;3.27;;;;;;;;;;4995786;28;20069;-68
2022/02/16 08:26:52;;;;;;;9.63;4.93;;;;;;;;;;4996444;28;20193;-68
2022/02/16 08:29:18;;;;;;;5.70;3.23;;;;;;;;;;4996383;28;20483;-68
2022/02/16 08:31:45;;;;;;;9.47;4.77;;;;;;;;;;4995910;28;20027;-69
2022/02/16 08:34:11;;;;;;;8.97;6.37;;;;;;;;;;4995944;28;20108;-69
2022/02/16 08:36:37;;;;;;;10.73;7.77;;;;;;;;;;4995755;28;20084;-69
2022/02/16 08:39:04;;;;;;;10.97;7.43;;;;;;;;;;4995874;28;20030;-69
2022/02/16 08:41:30;;;;;;;9.90;7.40;;;;;;;;;;4995892;28;20176;-69
2022/02/16 08:43:56;;;;;;;11.87;7.90;;;;;;;;;;4995838;28;20074;-69
2022/02/16 08:46:22;;;;;;;11.03;7.80;;;;;;;;;;4995884;28;20113;-69
2022/02/16 08:48:48;;;;;;;12.30;6.77;;;;;;;;;;4994373;28;20443;-73
2022/02/16 08:51:14;;;;;;;9.03;6.17;;;;;;;;;;4995666;28;20034;-69
2022/02/16 08:53:41;;;;;;;9.63;7.23;;;;;;;;;;4995718;28;20042;-70
2022/02/16 08:56:07;;;;;;;9.40;7.23;;;;;;;;;;4995619;28;20109;-70
2022/02/16 08:58:33;;;;;;;10.77;7.80;;;;;;;;;;4995653;28;20081;-70
2022/02/16 09:00:59;;;;;;;11.30;7.57;;;;;;;;;;4995555;28;20150;-68
2022/02/16 09:03:27;;;;;;;9.83;7.50;;;;;;;;;;4995656;28;20415;-69
2022/02/16 09:05:53;;;;;;;10.27;7.63;;;;;;;;;;4995237;28;20074;-69
2022/02/16 09:08:19;;;;;;;9.33;6.60;;;;;;;;;;4995610;28;20039;-69
2022/02/16 09:10:46;;;;;;;7.37;5.73;;;;;;;;;;4995862;28;20114;-69
2022/02/16 09:13:12;;;;;;;6.43;5.43;;;;;;;;;;4995693;28;20062;-68
2022/02/16 09:15:38;;;;;;;7.33;5.00;;;;;;;;;;4995702;28;20042;-68
2022/02/16 09:18:08;;;;;;;8.77;5.00;;;;;;;;;;4995487;28;20042;-69
2022/02/16 09:20:34;;;;;;;7.87;5.57;;;;;;;;;;4995550;28;20077;-69
2022/02/16 09:23:01;;;;;;;7.50;5.17;;;;;;;;;;4995675;28;20093;-69
2022/02/16 09:25:27;;;;;;;5.87;4.87;;;;;;;;;;4995607;28;20101;-69
2022/02/16 09:27:53;;;;;;;5.40;4.00;;;;;;;;;;4995258;28;20042;-69
2022/02/16 09:30:19;;;;;;;6.00;4.30;;;;;;;;;;4995105;28;20380;-69
2022/02/16 09:32:45;;;;;;;6.90;3.73;;;;;;;;;;4995100;28;20109;-69
2022/02/16 09:35:11;;;;;;;5.50;3.93;;;;;;;;;;4995271;28;20152;-68
2022/02/16 09:37:38;;;;;;;4.83;3.20;;;;;;;;;;4995221;28;20038;-68
2022/02/16 09:40:05;;;;;;;5.27;3.50;;;;;;;;;;4994819;28;20030;-73
2022/02/16 09:42:32;;;;;;;4.23;3.40;;;;;;;;;;4993762;28;20038;-70
2022/02/16 09:45:02;;;;;;;3.63;2.60;;;;;;;;;;4993401;28;20365;-68
2022/02/16 09:47:32;;;;;;;3.47;2.30;;;;;;;;;;4995101;28;20038;-69
2022/02/16 09:49:59;;;;;;;3.40;2.90;;;;;;;;;;4994864;28;20034;-68
2022/02/16 09:52:25;;;;;;;4.53;2.43;;;;;;;;;;4994639;28;20033;-69
2022/02/16 09:54:52;;;;;;;5.97;1.97;;;;;;;;;;4994540;28;20042;-73
2022/02/16 09:57:18;;;;;;;2.70;2.10;;;;;;;;;;4994822;28;20042;-71
2022/02/16 09:59:44;;;;;;;3.00;2.27;;;;;;;;;;4994624;28;20030;-69
2022/02/16 10:02:12;;;;;;;4.30;2.30;;;;;;;;;;4993802;28;20050;-69
2022/02/16 10:04:40;;;;;;;4.70;2.60;;;;;;;;;;4994158;28;20483;-68
2022/02/16 10:07:38;;;;;;;3.53;2.70;;;;;;;;;;4994636;28;20038;-69
2022/02/16 10:10:24;;;;;;;7.00;3.73;;;;;;;;;;4990586;28;20034;-68
2022/02/16 10:12:52;;;;;;;4.20;3.00;;;;;;;;;;4994652;28;20108;-69
2022/02/16 10:15:22;;;;;;;5.20;3.43;;;;;;;;;;4994592;28;20085;-68
2022/02/16 10:17:49;;;;;;;4.80;3.13;;;;;;;;;;4988988;28;20035;-68
2022/02/16 10:20:19;;;;;;;4.40;3.80;;;;;;;;;;4967892;28;20065;-76
2022/02/16 10:22:45;;;;;;;5.47;3.50;;;;;;;;;;4974942;28;20050;-68
2022/02/16 10:25:13;;;;;;;4.03;3.20;;;;;;;;;;4975050;28;20074;-68
2022/02/16 10:27:39;;;;;;;5.33;3.30;;;;;;;;;;4974760;28;20555;-67
2022/02/16 10:30:14;;;;;;;5.07;2.90;;;;;;;;;;4974996;28;20125;-68
2022/02/16 10:32:40;;;;;;;4.60;2.80;;;;;;;;;;4975061;28;20491;-74
2022/02/16 10:35:06;;;;;;;3.73;2.67;;;;;;;;;;4974481;28;20565;-68
2022/02/16 10:37:37;;;;;;;7.57;2.83;;;;;;;;;;4974431;28;20043;-68
2022/02/16 10:40:10;;;;;;;3.80;2.80;;;;;;;;;;4973424;28;20046;-68
2022/02/16 10:42:37;;;;;;;;;;;;;;;;;;4974904;28;20074;-74
2022/02/16 10:45:08;;;;;;;3.90;2.15;;;;;;;;;;4973906;28;19913;-69
2022/02/16 10:47:54;;;;;;;3.50;2.37;;;;;;;;;;4972727;28;20383;-68
2022/02/16 10:50:24;;;;;;;4.10;2.97;;;;;;;;;;4973989;28;20062;-70
2022/02/16 10:53:01;;;;;;;7.27;5.47;;;;;;;;;;4974240;28;20113;-68
2022/02/16 10:55:36;;;;;;;9.40;6.60;;;;;;;;;;4974436;28;20403;-68
2022/02/16 10:58:04;;;;;;;11.57;7.30;;;;;;;;;;4974447;28;20162;-68
2022/02/16 11:00:31;;;;;;;11.35;7.53;;;;;;;;;;4974337;28;20050;-68
2022/02/16 11:02:58;;;;;;;10.48;7.63;;;;;;;;;;4973726;28;20038;-69
2022/02/16 11:05:24;;;;;;;11.85;9.30;;;;;;;;;;4973373;28;20117;-69
2022/02/16 11:07:51;;;;;;;12.00;9.05;;;;;;;;;;4973997;28;20038;-72
2022/02/16 11:10:20;;;;;;;13.38;9.70;;;;;;;;;;4973687;28;20069;-72
2022/02/16 11:12:46;;;;;;;15.18;10.25;;;;;;;;;;4973018;28;20037;-68
2022/02/16 11:15:14;;;;;;;15.32;11.85;;;;;;;;;;4973889;28;20043;-69
2022/02/16 11:17:40;;;;;;;14.18;11.65;;;;;;;;;;4974226;28;20062;-69
2022/02/16 11:20:19;;;;;;;18.83;13.23;;;;;;;;;;4974161;28;20402;-69
2022/02/16 11:22:48;;;;;;;17.08;12.55;;;;;;;;;;4974366;28;20503;-68
2022/02/16 11:25:27;;;;;;;16.20;12.73;;;;;;;;;;4973416;28;20034;-68
2022/02/16 11:27:53;;;;;;;18.13;14.57;;;;;;;;;;4973982;28;20049;-68
2022/02/16 11:30:30;;;;;;;21.05;13.82;;;;;;;;;;4974226;28;20078;-68
2022/02/16 11:33:09;;;;;;;23.02;15.18;;;;;;;;;;4973973;28;20110;-67
2022/02/16 11:35:44;;;;;;;18.65;13.65;;;;;;;;;;4974148;28;20039;-72
2022/02/16 11:38:11;;;;;;;19.60;13.73;;;;;;;;;;4974082;28;20031;-69
2022/02/16 11:40:57;;;;;;;16.90;12.38;;;;;;;;;;4973857;28;20042;-72
2022/02/16 11:44:00;;;;;;;15.48;11.27;;;;;;;;;;4973489;28;20035;-72
2022/02/16 11:46:39;;;;;;;13.50;10.10;;;;;;;;;;4952300;28;20433;-69
2022/02/16 11:49:06;;;;;;;11.95;10.27;;;;;;;;;;4972002;28;20484;-69
2022/02/16 11:51:34;;;;;;;14.45;8.65;;;;;;;;;;4977389;28;20506;-68
2022/02/16 11:54:20;;;;;;;9.13;7.97;;;;;;;;;;4977860;28;20070;-68
2022/02/16 11:56:46;;;;;;;22.55;8.88;;;;;;;;;;4978142;28;20085;-68
2022/02/16 11:59:12;;;;;;;13.40;7.55;;;;;;;;;;4977709;28;20046;-69
2022/02/16 12:01:56;;;;;;;9.73;7.95;;;;;;;;;;4977194;28;20045;-68
2022/02/16 12:04:32;;;;;;;9.13;7.53;;;;;;;;;;4977508;28;20035;-69
2022/02/16 12:07:17;;;;;;;10.35;7.30;;;;;;;;;;4977713;28;20045;-68
2022/02/16 12:10:03;;;;;;;10.35;7.00;;;;;;;;;;4977458;28;20039;-69
2022/02/16 12:12:32;;;;;;;6.88;5.70;;;;;;;;;;4977011;28;20043;-69
2022/02/16 12:14:58;;;;;;;7.20;5.78;;;;;;;;;;4977157;28;20490;-68
2022/02/16 12:17:24;;;;;;;7.75;6.00;;;;;;;;;;4977215;28;20113;-68
2022/02/16 12:19:50;;;;;;;9.27;7.00;;;;;;;;;;4977358;28;20035;-68
2022/02/16 12:22:22;;;;;;;8.75;6.45;;;;;;;;;;4977517;28;20410;-68
2022/02/16 12:24:48;;;;;;;8.07;7.13;;;;;;;;;;4992248;28;20419;-68
2022/02/16 12:27:19;;;;;;;7.25;6.45;;;;;;;;;;4976909;28;20038;-69
2022/02/16 12:29:47;;;;;;;11.38;6.40;;;;;;;;;;4976813;28;20038;-68
2022/02/16 12:32:19;;;;;;;8.75;6.38;;;;;;;;;;4976820;28;20023;-69
2022/02/16 12:34:46;;;;;;;7.00;6.10;;;;;;;;;;4975788;28;20047;-70
2022/02/16 12:37:17;;;;;;;5.85;5.25;;;;;;;;;;4975846;28;20395;-71
2022/02/16 12:39:55;;;;;;;6.30;5.70;;;;;;;;;;4976671;28;20047;-70
2022/02/16 12:42:29;;;;;;;5.82;5.13;;;;;;;;;;4976136;28;20078;-70
2022/02/16 12:44:56;;;;;;;6.72;5.82;;;;;;;;;;4975109;28;20023;-70
2022/02/16 12:47:23;;;;;;;8.13;5.82;;;;;;;;;;4976977;28;20484;-70
2022/02/16 12:49:49;;;;;;;8.85;5.97;;;;;;;;;;4976685;28;20045;-70
2022/02/16 12:52:16;;;;;;;7.63;6.47;;;;;;;;;;4976412;28;20035;-71
2022/02/16 12:54:42;;;;;;;7.45;6.25;;;;;;;;;;4976346;28;20439;-71
2022/02/16 12:57:09;;;;;;;7.20;6.50;;;;;;;;;;4976086;28;20042;-70
2022/02/16 12:59:36;;;;;;;17.05;13.68;;;;;;;;;;4975840;28;20117;-69
2022/02/16 13:02:11;;;;;;;14.80;10.95;;;;;;;;;;4975043;28;20055;-69
2022/02/16 13:04:37;;;;;;;20.80;18.17;;;;;;;;;;4975641;28;20484;-69
2022/02/16 13:07:03;;;;;;;26.65;20.63;;;;;;;;;;4975401;28;20034;-69
2022/02/16 13:09:29;;;;;;;26.63;22.92;;;;;;;;;;4975670;28;20113;-70
2022/02/16 13:11:58;;;;;;;26.27;21.67;;;;;;;;;;4975372;28;20027;-68
2022/02/16 13:14:26;;;;;;;36.17;26.33;;;;;;;;;;4975522;28;20492;-70
2022/02/16 13:17:04;;;;;;;31.17;26.88;;;;;;;;;;4973717;28;20046;-70
2022/02/16 13:19:43;;;;;;;33.28;27.77;;;;;;;;;;4972562;28;20043;-70
2022/02/16 13:22:09;;;;;;;38.03;31.17;;;;;;;;;;4972422;28;20062;-68
2022/02/16 13:24:35;;;;;;;35.20;30.05;;;;;;;;;;4974825;28;20034;-68
2022/02/16 13:27:04;;;;;;;37.83;30.75;;;;;;;;;;4975581;28;20066;-68
2022/02/16 13:29:31;;;;;;;38.03;30.67;;;;;;;;;;4974424;28;20392;-68
2022/02/16 13:31:57;;;;;;;37.03;30.98;;;;;;;;;;4974082;28;20045;-70
2022/02/16 13:34:23;;;;;;;37.00;31.52;;;;;;;;;;4972922;28;20051;-69
2022/02/16 13:36:49;;;;;;;40.75;31.38;;;;;;;;;;4974188;28;20047;-70
2022/02/16 13:39:18;;;;;;;145.43;38.20;;;;;;;;;;4974309;28;20027;-69
2022/02/16 13:41:52;;;;;;;38.67;32.00;;;;;;;;;;4975135;28;20046;-72
2022/02/16 13:44:31;;;;;;;37.03;29.90;;;;;;;;;;4973889;28;20110;-73
2022/02/16 13:46:59;;;;;;;39.42;31.55;;;;;;;;;;4974396;28;20431;-68
2022/02/16 13:49:26;;;;;;;35.33;29.60;;;;;;;;;;4975468;28;20038;-68
2022/02/16 13:51:53;;;;;;;34.22;28.92;;;;;;;;;;4975467;28;20038;-68
2022/02/16 13:54:20;;;;;;;38.00;31.02;;;;;;;;;;4972680;28;20117;-69
2022/02/16 13:56:57;;;;;;;87.85;37.15;;;;;;;;;;4974972;28;20031;-69
2022/02/16 13:59:23;;;;;;;36.22;28.88;;;;;;;;;;4975218;28;20043;-69
2022/02/16 14:02:08;;;;;;;36.92;28.85;;;;;;;;;;4973241;28;20050;-69
2022/02/16 14:04:35;;;;;;;33.15;27.70;;;;;;;;;;4974845;28;20049;-69
2022/02/16 14:07:02;;;;;;;34.03;27.80;;;;;;;;;;4974819;28;20395;-68
2022/02/16 14:09:28;;;;;;;32.42;24.92;;;;;;;;;;4974587;28;20131;-71
2022/02/16 14:11:54;;;;;;;35.05;26.92;;;;;;;;;;4973170;28;20446;-72
2022/02/16 14:14:20;;;;;;;35.83;26.63;;;;;;;;;;4971592;28;20114;-69
2022/02/16 14:16:46;;;;;;;51.10;31.83;;;;;;;;;;4974469;28;20088;-68
2022/02/16 14:19:24;;;;;;;39.45;31.02;;;;;;;;;;4972672;28;20050;-69
2022/02/16 14:21:58;;;;;;;48.15;35.28;;;;;;;;;;4974337;28;20046;-67
2022/02/16 14:24:25;;;;;;;39.17;30.73;;;;;;;;;;4973285;28;20045;-69
2022/02/16 14:26:51;;;;;;;39.85;32.05;;;;;;;;;;4973164;28;20092;-67
2022/02/16 14:29:18;;;;;;;48.83;37.85;;;;;;;;;;4974744;28;20435;-68
2022/02/16 14:31:44;;;;;;;125.90;83.03;;;;;;;;;;4970572;28;20371;-69
2022/02/16 14:34:10;;;;;;;93.25;63.65;;;;;;;;;;4971274;28;20159;-68
2022/02/16 14:36:37;;;;;;;52.60;39.50;;;;;;;;;;4974199;28;20543;-70